Terminal Aerodrome Forecast
Issued by NWS Detroit/Pontiac, MI

Home | Current Version | Previous Version | Text Only | Print | Product List | Glossary On
Versions: 1 2 3 4 5 6 7 8 9 10 11 12 13 14 15 16 17 18 19 20 21 22 23
314
FTUS43 KDTX 251125
TAFDTW
TAF
KDTW 251125Z 2512/2618 10007KT P6SM BKN045 OVC060
     FM251400 10006KT P6SM OVC045
     FM252000 12008KT P6SM BKN060
     FM260200 13006KT P6SM BKN100=

USA.gov is the U.S. government's official web portal to all federal, state and local government web resources and services.